createdAt,value
2022-09-13T00:00:49.444Z,2.00
2022-09-13T00:03:17.690Z,1.90
2022-09-13T00:05:45.715Z,2.43
2022-09-13T00:08:14.573Z,2.20
2022-09-13T00:10:45.065Z,2.10
2022-09-13T00:13:15.096Z,2.40
2022-09-13T00:15:45.267Z,2.07
2022-09-13T00:18:13.437Z,2.10
2022-09-13T00:20:41.347Z,2.33
2022-09-13T00:23:16.595Z,1.80
2022-09-13T00:25:45.878Z,1.80
2022-09-13T00:28:13.826Z,1.90
2022-09-13T00:30:41.752Z,1.90
2022-09-13T00:33:09.629Z,1.93
2022-09-13T00:35:37.531Z,1.70
2022-09-13T00:38:06.544Z,1.97
2022-09-13T00:40:38.554Z,2.00
2022-09-13T00:43:17.370Z,1.97
2022-09-13T00:45:45.860Z,1.93
2022-09-13T00:48:20.024Z,1.80
2022-09-13T00:50:52.150Z,1.80
2022-09-13T00:53:25.081Z,1.67
2022-09-13T00:55:56.654Z,1.87
2022-09-13T00:58:29.109Z,1.90
2022-09-13T01:00:59.862Z,1.50
2022-09-13T01:03:31.085Z,1.80
2022-09-13T01:06:05.448Z,1.77
2022-09-13T01:08:36.270Z,1.60
2022-09-13T01:11:06.963Z,1.63
2022-09-13T01:13:37.181Z,2.10
2022-09-13T01:16:05.564Z,1.80
2022-09-13T01:18:33.595Z,1.83
2022-09-13T01:21:29.993Z,2.03
2022-09-13T01:24:22.419Z,1.90
2022-09-13T01:27:22.505Z,1.90
2022-09-13T01:30:12.211Z,1.60
2022-09-13T01:33:17.685Z,2.00
2022-09-13T01:36:07.696Z,2.00
2022-09-13T01:38:54.293Z,1.90
2022-09-13T01:41:45.100Z,1.93
2022-09-13T01:44:28.193Z,1.70
2022-09-13T01:47:04.258Z,1.87
2022-09-13T01:49:44.406Z,1.53
2022-09-13T01:52:22.549Z,1.80
2022-09-13T01:54:58.384Z,1.73
2022-09-13T01:57:31.565Z,1.60
2022-09-13T02:00:05.109Z,1.60
2022-09-13T02:02:44.322Z,1.50
2022-09-13T02:05:18.695Z,1.60
2022-09-13T02:07:50.724Z,1.50
2022-09-13T02:10:25.201Z,2.10
2022-09-13T02:12:55.138Z,1.80
2022-09-13T02:15:26.814Z,1.70
2022-09-13T02:18:03.358Z,1.80
2022-09-13T02:20:36.299Z,1.67
2022-09-13T02:23:09.388Z,1.70
2022-09-13T02:25:40.801Z,1.87
2022-09-13T02:28:13.906Z,2.03
2022-09-13T02:30:47.618Z,1.57
2022-09-13T02:33:19.774Z,1.50
2022-09-13T02:35:52.941Z,1.80
2022-09-13T02:38:25.814Z,1.90
2022-09-13T02:40:59.439Z,1.70
2022-09-13T02:43:32.703Z,2.03
2022-09-13T02:46:21.197Z,1.63
2022-09-13T02:48:59.610Z,2.10
2022-09-13T02:51:35.053Z,2.10
2022-09-13T02:54:12.840Z,1.93
2022-09-13T02:56:49.362Z,1.93
2022-09-13T02:59:19.629Z,1.97
2022-09-13T03:01:50.765Z,1.97
2022-09-13T03:04:20.315Z,1.87
2022-09-13T03:06:49.965Z,1.63
2022-09-13T03:09:19.259Z,2.07
2022-09-13T03:12:02.132Z,2.03
2022-09-13T03:14:42.081Z,1.87
2022-09-13T03:17:19.074Z,2.00
2022-09-13T03:20:02.804Z,2.10
2022-09-13T03:22:47.809Z,2.27
2022-09-13T03:25:26.794Z,2.00
2022-09-13T03:28:04.008Z,2.13
2022-09-13T03:30:35.725Z,2.07
2022-09-13T03:33:12.061Z,2.17
2022-09-13T03:35:45.924Z,2.47
2022-09-13T03:38:17.634Z,2.60
2022-09-13T03:40:49.941Z,2.13
2022-09-13T03:43:23.836Z,2.10
2022-09-13T03:45:55.587Z,2.50
2022-09-13T03:48:24.415Z,2.23
2022-09-13T03:50:54.340Z,2.43
2022-09-13T03:53:26.107Z,2.30
2022-09-13T03:55:54.713Z,2.20
2022-09-13T03:58:23.693Z,2.03
2022-09-13T04:00:51.640Z,2.40
2022-09-13T04:03:19.759Z,2.30
2022-09-13T04:05:47.895Z,2.10
2022-09-13T04:08:17.173Z,2.83
2022-09-13T04:10:45.111Z,2.33
2022-09-13T04:13:13.017Z,2.27
2022-09-13T04:15:40.945Z,2.30
2022-09-13T04:18:09.009Z,2.13
2022-09-13T04:20:36.858Z,2.20
2022-09-13T04:23:04.864Z,2.40
2022-09-13T04:25:34.152Z,2.43
2022-09-13T04:28:02.395Z,2.43
2022-09-13T04:30:30.913Z,2.00
2022-09-13T04:32:59.490Z,2.60
2022-09-13T04:35:27.442Z,2.90
2022-09-13T04:37:56.939Z,2.00
2022-09-13T04:40:24.867Z,2.57
2022-09-13T04:42:54.170Z,2.67
2022-09-13T04:45:22.423Z,2.60
2022-09-13T04:47:53.851Z,2.93
2022-09-13T04:50:22.059Z,2.37
2022-09-13T04:52:51.943Z,2.37
2022-09-13T04:55:19.821Z,2.60
2022-09-13T04:57:47.786Z,3.03
2022-09-13T05:00:17.389Z,2.63
2022-09-13T05:02:45.249Z,2.40
2022-09-13T05:05:13.225Z,2.60
2022-09-13T05:07:41.586Z,2.57
2022-09-13T05:10:10.408Z,2.90
2022-09-13T05:12:38.285Z,3.00
2022-09-13T05:15:07.250Z,3.10
2022-09-13T05:17:36.455Z,2.77
2022-09-13T05:20:06.400Z,2.70
2022-09-13T05:22:34.395Z,2.90
2022-09-13T05:25:02.283Z,3.17
2022-09-13T05:27:30.165Z,2.60
2022-09-13T05:29:58.073Z,3.83
2022-09-13T05:32:26.035Z,3.07
2022-09-13T05:34:55.296Z,2.50
2022-09-13T05:37:23.244Z,2.87
2022-09-13T05:42:39.181Z,2.30
2022-09-13T05:45:08.566Z,2.60
2022-09-13T05:47:36.463Z,2.57
2022-09-13T05:50:11.809Z,2.63
2022-09-13T05:52:41.491Z,2.53
2022-09-13T05:55:10.594Z,2.37
2022-09-13T05:57:38.482Z,2.33
2022-09-13T06:00:07.436Z,2.80
2022-09-13T06:02:41.230Z,2.27
2022-09-13T06:05:11.932Z,2.20
2022-09-13T06:07:41.697Z,1.93
2022-09-13T06:10:10.353Z,2.10
2022-09-13T06:12:38.402Z,2.50
2022-09-13T06:15:07.148Z,2.63
2022-09-13T06:17:34.959Z,2.90
2022-09-13T06:20:03.571Z,2.77
2022-09-13T06:22:35.163Z,2.77
2022-09-13T06:25:03.050Z,2.63
2022-09-13T06:27:31.499Z,2.80
2022-09-13T06:29:59.394Z,2.90
2022-09-13T06:32:27.690Z,2.63
2022-09-13T06:34:55.607Z,2.87
2022-09-13T06:37:23.546Z,3.07
2022-09-13T06:39:52.942Z,2.60
2022-09-13T06:42:20.841Z,3.10
2022-09-13T06:44:48.759Z,3.10
2022-09-13T06:47:16.668Z,3.03
2022-09-13T06:49:44.644Z,2.67
2022-09-13T06:52:12.549Z,3.70
2022-09-13T06:54:40.791Z,3.10
2022-09-13T06:57:10.011Z,3.60
2022-09-13T06:59:38.055Z,2.97
2022-09-13T07:02:06.065Z,3.20
2022-09-13T07:04:34.614Z,2.73
2022-09-13T07:07:02.646Z,2.90
2022-09-13T07:09:30.573Z,2.80
2022-09-13T07:11:58.689Z,2.80
2022-09-13T07:14:29.609Z,2.53
2022-09-13T07:16:57.714Z,2.70
2022-09-13T07:19:27.330Z,2.60
2022-09-13T07:21:56.259Z,2.90
2022-09-13T07:24:24.826Z,3.03
2022-09-13T07:26:52.938Z,3.10
2022-09-13T07:29:23.765Z,2.53
2022-09-13T07:31:55.116Z,2.60
2022-09-13T07:34:24.789Z,2.63
2022-09-13T07:36:53.441Z,2.77
2022-09-13T07:39:23.223Z,3.10
2022-09-13T07:41:52.084Z,3.00
2022-09-13T07:44:20.215Z,2.60
2022-09-13T07:46:48.149Z,2.70
2022-09-13T07:49:19.421Z,2.70
2022-09-13T07:51:51.203Z,2.53
2022-09-13T07:54:20.894Z,3.07
2022-09-13T07:56:50.207Z,2.90
2022-09-13T07:59:19.595Z,3.03
2022-09-13T08:01:49.123Z,2.93
2022-09-13T08:04:21.228Z,2.80
2022-09-13T08:06:49.948Z,3.07
2022-09-13T08:09:18.682Z,2.90
2022-09-13T08:11:48.088Z,3.17
2022-09-13T08:14:18.133Z,2.67
2022-09-13T08:16:46.131Z,2.67
2022-09-13T08:19:15.770Z,2.90
2022-09-13T08:21:46.524Z,2.80
2022-09-13T08:24:17.086Z,3.43
2022-09-13T08:26:45.693Z,2.97
2022-09-13T08:29:14.500Z,3.40
2022-09-13T08:31:42.498Z,2.90
2022-09-13T08:34:12.854Z,4.20
2022-09-13T08:36:41.686Z,3.23
2022-09-13T08:39:13.295Z,2.93
2022-09-13T08:42:05.100Z,3.27
2022-09-13T08:44:36.575Z,3.03
2022-09-13T08:47:24.508Z,2.97
2022-09-13T08:49:57.358Z,2.60
2022-09-13T08:52:31.549Z,2.90
2022-09-13T08:55:04.450Z,2.80
2022-09-13T08:57:37.492Z,2.50
2022-09-13T09:00:20.634Z,2.70
2022-09-13T09:03:03.829Z,2.57
2022-09-13T09:05:47.778Z,2.57
2022-09-13T09:08:27.115Z,2.70
2022-09-13T09:10:59.167Z,2.43
2022-09-13T09:13:31.855Z,2.60
2022-09-13T09:16:03.869Z,2.80
2022-09-13T09:18:35.860Z,2.47
2022-09-13T09:21:04.785Z,2.70
2022-09-13T09:23:37.303Z,3.00
2022-09-13T09:26:17.092Z,3.03
2022-09-13T09:28:47.615Z,2.47
2022-09-13T09:31:22.285Z,2.67
2022-09-13T09:34:01.834Z,2.60
2022-09-13T09:36:37.439Z,2.87
2022-09-13T09:39:06.179Z,3.03
2022-09-13T09:41:38.351Z,2.97
2022-09-13T09:44:18.746Z,2.40
2022-09-13T09:46:49.819Z,2.50
2022-09-13T09:49:40.253Z,3.17
2022-09-13T09:52:11.235Z,2.57
2022-09-13T09:54:41.586Z,2.70
2022-09-13T09:57:11.437Z,2.10
2022-09-13T09:59:39.321Z,2.70
2022-09-13T10:02:17.063Z,1.97
2022-09-13T10:04:54.591Z,2.37
2022-09-13T10:07:29.076Z,2.20
2022-09-13T10:10:05.857Z,2.27
2022-09-13T10:12:37.820Z,1.90
2022-09-13T10:15:18.288Z,1.87
2022-09-13T10:18:03.092Z,2.20
2022-09-13T10:20:31.425Z,1.90
2022-09-13T10:23:19.439Z,1.90
2022-09-13T10:25:58.703Z,2.20
2022-09-13T10:28:28.583Z,1.90
2022-09-13T10:31:00.182Z,2.10
2022-09-13T10:33:31.432Z,1.90
2022-09-13T10:36:02.149Z,1.33
2022-09-13T10:38:34.870Z,1.73
2022-09-13T10:41:05.903Z,1.80
2022-09-13T10:43:36.819Z,1.77
2022-09-13T10:46:07.507Z,1.40
2022-09-13T10:48:47.517Z,1.60
2022-09-13T10:51:36.758Z,1.83
2022-09-13T10:54:18.773Z,1.20
2022-09-13T10:56:47.260Z,1.13
2022-09-13T10:59:20.362Z,1.50
2022-09-13T11:02:13.625Z,1.23
2022-09-13T11:05:06.858Z,1.40
2022-09-13T11:08:08.199Z,1.40
2022-09-13T11:10:44.182Z,1.30
2022-09-13T11:13:21.860Z,1.20
2022-09-13T11:16:00.975Z,1.08
2022-09-13T11:18:54.552Z,1.23
2022-09-13T11:21:32.134Z,1.10
2022-09-13T11:24:13.757Z,1.13
2022-09-13T11:26:55.908Z,1.02
2022-09-13T11:29:54.044Z,1.25
2022-09-13T11:32:34.623Z,1.38
2022-09-13T11:35:21.872Z,1.13
2022-09-13T11:38:00.743Z,1.00
2022-09-13T11:40:40.790Z,1.30
2022-09-13T11:43:37.226Z,1.20
2022-09-13T11:46:14.118Z,1.20
2022-09-13T11:49:04.991Z,1.35
2022-09-13T11:51:48.884Z,1.20
2022-09-13T11:54:33.256Z,1.10
2022-09-13T11:57:06.540Z,1.52
2022-09-13T11:59:41.527Z,1.20
2022-09-13T12:02:18.448Z,1.10
2022-09-13T12:05:11.308Z,1.17
2022-09-13T12:07:45.590Z,1.15
2022-09-13T12:10:19.066Z,1.25
2022-09-13T12:12:50.714Z,1.15
2022-09-13T12:15:23.132Z,1.15
2022-09-13T12:17:56.975Z,1.20
2022-09-13T12:20:34.285Z,1.30
2022-09-13T12:23:05.670Z,0.80
2022-09-13T12:25:42.761Z,1.10
2022-09-13T12:28:18.817Z,1.20
2022-09-13T12:30:53.492Z,1.00
2022-09-13T12:37:49.047Z,1.10
2022-09-13T12:40:45.452Z,0.98
2022-09-13T12:43:42.303Z,1.15
2022-09-13T12:46:24.789Z,1.02
2022-09-13T12:49:17.454Z,1.00
2022-09-13T12:52:06.787Z,1.15
2022-09-13T12:55:45.450Z,1.00
2022-09-13T12:58:24.048Z,1.15
2022-09-13T13:01:10.976Z,1.10
2022-09-13T13:03:48.171Z,0.93
2022-09-13T13:06:27.702Z,1.30
2022-09-13T13:08:58.068Z,1.30
2022-09-13T13:11:31.273Z,1.08
2022-09-13T13:14:02.244Z,1.08
2022-09-13T13:16:31.595Z,0.85
2022-09-13T13:19:00.824Z,1.10
2022-09-13T13:21:37.642Z,1.00
2022-09-13T13:24:43.785Z,1.05
2022-09-13T13:27:37.070Z,0.90
2022-09-13T13:30:42.168Z,1.13
2022-09-13T13:33:27.106Z,0.80
2022-09-13T13:35:55.379Z,0.90
2022-09-13T13:38:48.192Z,0.88
2022-09-13T13:41:40.417Z,0.93
2022-09-13T13:44:45.656Z,0.95
2022-09-13T13:47:53.364Z,1.17
2022-09-13T13:50:23.418Z,0.95
2022-09-13T13:53:05.567Z,1.00
2022-09-13T13:55:46.858Z,0.85
2022-09-13T13:58:34.622Z,0.82
2022-09-13T14:01:04.115Z,0.90
2022-09-13T14:03:51.284Z,0.70
2022-09-13T14:06:27.523Z,0.90
2022-09-13T14:09:09.416Z,1.25
2022-09-13T14:11:52.042Z,1.20
2022-09-13T14:14:37.592Z,0.90
2022-09-13T14:17:31.942Z,1.13
2022-09-13T14:20:05.300Z,1.00
2022-09-13T14:22:33.150Z,1.00
2022-09-13T14:25:16.741Z,0.90
2022-09-13T14:27:45.224Z,1.10
2022-09-13T14:30:21.865Z,0.82
2022-09-13T14:32:51.658Z,0.90
2022-09-13T14:35:29.527Z,0.80
2022-09-13T14:38:10.488Z,0.93
2022-09-13T14:44:33.221Z,1.10
2022-09-13T14:47:09.325Z,1.00
2022-09-13T14:49:46.241Z,1.00
2022-09-13T14:52:24.903Z,0.90
2022-09-13T14:54:57.489Z,1.00
2022-09-13T14:57:29.333Z,1.13
2022-09-13T15:00:00.096Z,0.93
2022-09-13T15:02:31.839Z,0.98
2022-09-13T15:05:02.196Z,1.17
2022-09-13T15:07:34.809Z,1.10
2022-09-13T15:10:09.822Z,1.00
2022-09-13T15:12:38.411Z,0.98
2022-09-13T15:15:26.236Z,1.67
2022-09-13T15:17:56.406Z,1.60
2022-09-13T15:20:25.240Z,1.20
2022-09-13T15:22:54.783Z,1.90
2022-09-13T15:25:27.499Z,1.00
2022-09-13T15:27:56.855Z,1.08
2022-09-13T15:30:28.107Z,0.88
2022-09-13T15:33:19.951Z,1.00
2022-09-13T15:35:48.541Z,1.10
2022-09-13T15:38:22.398Z,0.93
2022-09-13T15:41:01.880Z,1.08
2022-09-13T15:43:30.894Z,1.00
2022-09-13T15:46:01.473Z,1.00
2022-09-13T15:48:31.269Z,0.70
2022-09-13T15:51:08.306Z,1.00
2022-09-13T15:53:39.713Z,0.98
2022-09-13T15:56:09.006Z,0.75
2022-09-13T15:58:37.854Z,0.93
2022-09-13T16:01:06.588Z,1.10
2022-09-13T16:03:34.500Z,1.05
2022-09-13T16:06:02.337Z,1.00
2022-09-13T16:08:30.223Z,1.10
2022-09-13T16:10:59.619Z,1.10
2022-09-13T16:13:30.620Z,0.90
2022-09-13T16:15:58.637Z,1.10
2022-09-13T16:18:26.601Z,1.20
2022-09-13T16:20:54.449Z,0.93
2022-09-13T16:23:22.537Z,1.20
2022-09-13T16:25:55.099Z,1.13
2022-09-13T16:28:24.761Z,1.40
2022-09-13T16:30:53.861Z,1.30
2022-09-13T16:33:21.732Z,1.48
2022-09-13T16:35:49.779Z,1.70
2022-09-13T16:38:18.092Z,1.40
2022-09-13T16:40:46.180Z,1.23
2022-09-13T16:43:14.150Z,1.38
2022-09-13T16:45:45.128Z,1.75
2022-09-13T16:48:13.077Z,1.30
2022-09-13T16:50:41.980Z,1.47
2022-09-13T16:53:10.381Z,1.20
2022-09-13T16:55:38.235Z,1.20
2022-09-13T16:58:06.088Z,1.40
2022-09-13T17:00:33.930Z,1.60
2022-09-13T17:03:03.290Z,1.10
2022-09-13T17:05:31.209Z,1.23
2022-09-13T17:07:59.071Z,1.50
2022-09-13T17:10:26.904Z,1.50
2022-09-13T17:12:54.815Z,1.50
2022-09-13T17:15:22.797Z,1.27
2022-09-13T17:17:50.733Z,1.40
2022-09-13T17:20:20.305Z,1.37
2022-09-13T17:22:48.143Z,1.40
2022-09-13T17:25:16.190Z,1.37
2022-09-13T17:27:44.005Z,1.30
2022-09-13T17:30:12.846Z,1.60
2022-09-13T17:32:40.846Z,2.03
2022-09-13T17:35:10.671Z,1.90
2022-09-13T17:37:39.928Z,2.27
2022-09-13T17:40:08.482Z,2.20
2022-09-13T17:42:36.462Z,1.80
2022-09-13T17:45:04.699Z,1.70
2022-09-13T17:47:32.943Z,1.67
2022-09-13T17:50:02.025Z,1.30
2022-09-13T17:52:34.636Z,1.23
2022-09-13T17:55:05.195Z,1.80
2022-09-13T17:57:33.181Z,1.40
2022-09-13T18:00:00.977Z,1.50
2022-09-13T18:02:29.516Z,1.47
2022-09-13T18:04:57.410Z,1.37
2022-09-13T18:07:25.350Z,1.40
2022-09-13T18:09:53.434Z,1.40
2022-09-13T18:12:22.758Z,1.57
2022-09-13T18:14:50.665Z,1.60
2022-09-13T18:17:18.504Z,1.60
2022-09-13T18:19:47.221Z,2.57
2022-09-13T18:22:15.741Z,1.57
2022-09-13T18:24:43.651Z,1.70
2022-09-13T18:27:11.984Z,1.50
2022-09-13T18:29:41.298Z,1.47
2022-09-13T18:32:09.329Z,1.97
2022-09-13T18:34:37.243Z,1.50
2022-09-13T18:37:05.220Z,1.63
2022-09-13T18:39:33.337Z,1.40
2022-09-13T18:42:01.546Z,1.40
2022-09-13T18:44:30.274Z,1.40
2022-09-13T18:47:00.577Z,1.90
2022-09-13T18:49:28.556Z,1.70
2022-09-13T18:51:56.946Z,1.73
2022-09-13T18:54:24.837Z,1.43
2022-09-13T18:56:55.812Z,1.60
2022-09-13T18:59:23.756Z,1.57
2022-09-13T19:01:51.925Z,1.60
2022-09-13T19:04:21.832Z,1.60
2022-09-13T19:06:51.851Z,1.37
2022-09-13T19:09:20.879Z,1.60
2022-09-13T19:11:50.576Z,1.63
2022-09-13T19:14:20.394Z,1.70
2022-09-13T19:16:48.593Z,1.80
2022-09-13T19:19:16.858Z,1.90
2022-09-13T19:21:46.341Z,1.80
2022-09-13T19:24:18.347Z,1.80
2022-09-13T19:26:48.158Z,1.90
2022-09-13T19:29:17.770Z,1.93
2022-09-13T19:31:48.024Z,2.00
2022-09-13T19:34:17.432Z,2.10
2022-09-13T19:36:47.315Z,1.80
2022-09-13T19:39:15.435Z,1.70
2022-09-13T19:41:43.784Z,1.70
2022-09-13T19:44:13.697Z,1.70
2022-09-13T19:46:42.723Z,1.70
2022-09-13T19:49:14.610Z,1.60
2022-09-13T19:51:46.338Z,1.90
2022-09-13T19:54:18.747Z,1.60
2022-09-13T19:56:46.682Z,1.90
2022-09-13T19:59:16.866Z,1.60
2022-09-13T20:01:46.814Z,2.00
2022-09-13T20:04:16.404Z,2.23
2022-09-13T20:06:46.623Z,3.23
2022-09-13T20:09:18.288Z,2.00
2022-09-13T20:11:48.347Z,2.20
2022-09-13T20:14:19.500Z,2.30
2022-09-13T20:16:48.109Z,1.70
2022-09-13T20:19:39.696Z,1.67
2022-09-13T20:22:07.846Z,1.80
2022-09-13T20:24:37.593Z,1.80
2022-09-13T20:27:05.914Z,1.70
2022-09-13T20:29:33.834Z,1.60
2022-09-13T20:32:02.467Z,1.50
2022-09-13T20:34:31.070Z,1.90
2022-09-13T20:36:58.966Z,1.40
2022-09-13T20:39:27.143Z,1.60
2022-09-13T20:41:56.486Z,1.83
2022-09-13T20:44:24.370Z,1.90
2022-09-13T20:46:52.305Z,2.00
2022-09-13T20:49:20.585Z,1.90
2022-09-13T20:51:49.957Z,1.97
2022-09-13T20:54:17.828Z,1.97
2022-09-13T20:56:46.262Z,1.90
2022-09-13T20:59:15.847Z,1.97
2022-09-13T21:01:46.671Z,1.70
2022-09-13T21:04:14.613Z,1.83
2022-09-13T21:07:03.504Z,1.67
2022-09-13T21:09:32.417Z,2.03
2022-09-13T21:12:01.824Z,2.17
2022-09-13T21:14:32.163Z,1.90
2022-09-13T21:17:00.428Z,2.20
2022-09-13T21:19:30.125Z,1.83
2022-09-13T21:21:58.036Z,1.70
2022-09-13T21:24:25.896Z,1.57
2022-09-13T21:26:53.819Z,1.80
2022-09-13T21:29:21.687Z,2.00
2022-09-13T21:31:51.033Z,2.17
2022-09-13T21:34:19.889Z,1.67
2022-09-13T21:36:47.858Z,1.80
2022-09-13T21:39:16.804Z,1.80
2022-09-13T21:41:44.803Z,1.97
2022-09-13T21:44:13.181Z,2.07
2022-09-13T21:46:42.082Z,1.90
2022-09-13T21:49:13.326Z,2.00
2022-09-13T21:51:42.543Z,1.77
2022-09-13T21:54:12.420Z,1.70
2022-09-13T21:56:42.194Z,1.90
2022-09-13T21:59:14.347Z,1.83
2022-09-13T22:01:43.830Z,2.03
2022-09-13T22:04:18.201Z,1.83
2022-09-13T22:06:48.107Z,2.00
2022-09-13T22:09:16.530Z,1.60
2022-09-13T22:11:46.665Z,1.80
2022-09-13T22:14:16.554Z,1.90
2022-09-13T22:16:46.602Z,1.93
2022-09-13T22:19:18.042Z,1.87
2022-09-13T22:21:48.134Z,1.60
2022-09-13T22:24:18.921Z,1.80
2022-09-13T22:26:48.631Z,1.77
2022-09-13T22:29:17.313Z,2.23
2022-09-13T22:31:47.650Z,1.73
2022-09-13T22:34:19.015Z,1.93
2022-09-13T22:36:46.886Z,1.80
2022-09-13T22:39:16.689Z,1.77
2022-09-13T22:41:44.693Z,2.00
2022-09-13T22:44:13.049Z,1.80
2022-09-13T22:46:42.540Z,1.90
2022-09-13T22:49:13.709Z,2.10
2022-09-13T22:51:44.851Z,1.80
2022-09-13T22:54:13.728Z,2.43
2022-09-13T22:56:41.813Z,1.73
2022-09-13T22:59:13.153Z,1.93
2022-09-13T23:01:41.766Z,1.67
2022-09-13T23:04:09.772Z,1.90
2022-09-13T23:06:38.247Z,1.97
2022-09-13T23:09:09.353Z,1.93
2022-09-13T23:11:39.842Z,1.90
2022-09-13T23:14:10.697Z,1.90
2022-09-13T23:16:41.084Z,2.00
2022-09-13T23:19:10.659Z,2.30
2022-09-13T23:21:38.907Z,2.00
2022-09-13T23:24:11.811Z,3.00
2022-09-13T23:26:39.886Z,3.10
2022-09-13T23:29:07.895Z,1.90
2022-09-13T23:31:38.723Z,2.07
2022-09-13T23:34:09.003Z,2.03
2022-09-13T23:36:38.851Z,2.20
2022-09-13T23:39:11.485Z,2.10
2022-09-13T23:41:39.442Z,2.00
2022-09-13T23:44:07.756Z,1.87
2022-09-13T23:46:35.692Z,1.80
2022-09-13T23:49:03.636Z,2.00
2022-09-13T23:51:31.859Z,2.30
2022-09-13T23:54:01.064Z,1.90
2022-09-13T23:56:33.087Z,2.00
2022-09-13T23:59:02.532Z,2.03
